首页
METAR-TAF:

METAR-TAF

机场 :

日内瓦国际机场

日内瓦, 瑞士

纬度: 46-15N, 经度: 006-08E, 海拔: 420米

当前天气观测

该预报发布于36分钟前的09:50 UTC
风速2节,风向多变
温度 6°C
湿度 87%
气压 1008 hPa
能見度: 6000
少量云层高于900英尺
多云层高于1300英尺

METAR: LSGG 220950Z VRB02KT 6000 FEW009 BKN013 06/04 Q1008 NOSIG

时间: 11:26 (10:26 UTC)

预报

该预报发布于2小时和1分钟前的08:25 UTC
预报有效从22日的 09点(UTC)到 23日的 15点(UTC)
风速4节,风向北转东北
能見度: 8000
多云层高于2000英尺

TAF: LSGG 220825Z 2209/2315 02004KT 8000 BKN020 TX07/2214Z TN04/2306Z TX08/2314Z

超过4000个机场的气象观测和天气预报(METAR&TAF报告)。

可查询的气象台以黄色和红色小点在地图上表示。

将鼠标移到小点上方,可查看气象台名称。

然后点击查看天气观测和预报。

如需切换地图:点击带黑十字的绿色按钮放大地图;点击带横线的绿色按钮缩小地图;或者点击绿色箭头查看邻近地区的地图。


METAR-TAF: